createdAt,value
2023-12-30T00:02:59.207Z,1.70
2023-12-30T00:06:02.205Z,1.77
2023-12-30T00:09:06.141Z,2.42
2023-12-30T00:12:10.307Z,1.70
2023-12-30T00:15:13.117Z,2.35
2023-12-30T00:18:16.455Z,1.80
2023-12-30T00:21:20.390Z,1.75
2023-12-30T00:24:24.404Z,2.30
2023-12-30T00:27:27.472Z,1.33
2023-12-30T00:30:30.189Z,1.48
2023-12-30T00:33:33.286Z,2.40
2023-12-30T00:36:35.981Z,1.63
2023-12-30T00:39:42.713Z,1.73
2023-12-30T00:42:45.381Z,1.88
2023-12-30T00:45:49.599Z,2.30
2023-12-30T00:48:57.261Z,1.92
2023-12-30T00:52:01.147Z,1.98
2023-12-30T00:55:05.943Z,1.77
2023-12-30T00:58:09.710Z,1.90
2023-12-30T01:01:12.386Z,1.67
2023-12-30T01:04:15.101Z,2.08
2023-12-30T01:07:17.896Z,2.33
2023-12-30T01:10:22.120Z,1.88
2023-12-30T01:13:24.871Z,3.53
2023-12-30T01:16:27.653Z,2.15
2023-12-30T01:19:30.385Z,1.52
2023-12-30T01:22:33.079Z,2.10
2023-12-30T01:25:39.193Z,2.20
2023-12-30T01:28:41.901Z,1.95
2023-12-30T01:31:44.575Z,1.88
2023-12-30T01:34:47.385Z,1.77
2023-12-30T01:37:50.053Z,2.38
2023-12-30T01:40:56.556Z,1.88
2023-12-30T01:43:59.439Z,1.58
2023-12-30T01:47:02.483Z,2.15
2023-12-30T01:50:06.275Z,2.13
2023-12-30T01:53:08.958Z,1.58
2023-12-30T01:56:12.963Z,1.90
2023-12-30T01:59:15.691Z,1.35
2023-12-30T02:02:18.401Z,2.10
2023-12-30T02:05:21.271Z,2.13
2023-12-30T02:08:23.963Z,2.00
2023-12-30T02:11:27.980Z,2.03
2023-12-30T02:14:31.625Z,2.10
2023-12-30T02:17:34.406Z,2.15
2023-12-30T02:20:37.286Z,1.90
2023-12-30T02:23:41.459Z,2.15
2023-12-30T02:26:44.073Z,2.30
2023-12-30T02:29:46.850Z,1.55
2023-12-30T02:32:49.560Z,2.13
2023-12-30T02:35:52.257Z,2.38
2023-12-30T02:38:57.492Z,1.25
2023-12-30T02:42:00.154Z,1.38
2023-12-30T02:45:02.815Z,1.70
2023-12-30T02:48:06.544Z,2.85
2023-12-30T02:51:09.172Z,2.45
2023-12-30T02:54:13.136Z,2.30
2023-12-30T02:57:15.741Z,1.75
2023-12-30T03:00:19.522Z,2.60
2023-12-30T03:03:22.326Z,2.90
2023-12-30T03:06:25.112Z,3.00
2023-12-30T03:09:29.044Z,2.95
2023-12-30T03:12:31.895Z,2.08
2023-12-30T03:15:34.575Z,1.77
2023-12-30T03:18:37.261Z,1.95
2023-12-30T03:21:40.033Z,1.50
2023-12-30T03:24:43.953Z,1.60
2023-12-30T03:27:46.674Z,2.35
2023-12-30T03:30:49.346Z,2.65
2023-12-30T03:33:52.470Z,2.10
2023-12-30T03:36:55.316Z,1.80
2023-12-30T03:39:59.357Z,2.08
2023-12-30T03:43:02.699Z,2.33
2023-12-30T03:46:05.821Z,2.72
2023-12-30T03:49:08.527Z,2.60
2023-12-30T03:52:11.719Z,2.67
2023-12-30T03:55:15.878Z,1.85
2023-12-30T03:58:18.582Z,2.63
2023-12-30T04:01:21.275Z,2.08
2023-12-30T04:04:23.951Z,2.10
2023-12-30T04:07:26.600Z,2.10
2023-12-30T04:10:30.729Z,1.90
2023-12-30T04:13:33.727Z,2.20
2023-12-30T04:16:36.424Z,3.33
2023-12-30T04:19:39.126Z,1.38
2023-12-30T04:22:41.791Z,1.13
2023-12-30T04:25:45.853Z,1.55
2023-12-30T04:28:48.533Z,1.52
2023-12-30T04:31:51.223Z,1.95
2023-12-30T04:34:53.999Z,1.80
2023-12-30T04:37:56.712Z,2.55
2023-12-30T04:41:00.720Z,1.20
2023-12-30T04:44:03.612Z,1.40
2023-12-30T04:47:07.425Z,1.42
2023-12-30T04:50:10.626Z,1.35
2023-12-30T04:53:13.643Z,1.50
2023-12-30T04:56:18.004Z,1.65
2023-12-30T04:59:20.806Z,1.52
2023-12-30T05:02:23.424Z,1.25
2023-12-30T05:05:26.062Z,0.98
2023-12-30T05:08:28.724Z,2.00
2023-12-30T05:11:32.732Z,1.58
2023-12-30T05:14:35.444Z,1.48
2023-12-30T05:17:38.198Z,1.63
2023-12-30T05:20:40.920Z,1.83
2023-12-30T05:23:43.571Z,1.80
2023-12-30T05:26:47.531Z,1.63
2023-12-30T05:29:50.273Z,1.48
2023-12-30T05:32:53.032Z,1.42
2023-12-30T05:35:55.696Z,1.90
2023-12-30T05:38:58.330Z,1.90
2023-12-30T05:42:02.256Z,2.05
2023-12-30T05:45:05.478Z,2.15
2023-12-30T05:48:08.649Z,1.90
2023-12-30T05:51:11.548Z,1.83
2023-12-30T05:54:14.141Z,1.98
2023-12-30T05:57:18.994Z,2.17
2023-12-30T06:00:21.963Z,1.73
2023-12-30T06:03:24.551Z,1.92
2023-12-30T06:06:29.517Z,2.08
2023-12-30T06:09:33.842Z,2.80
2023-12-30T06:12:37.841Z,1.85
2023-12-30T06:15:40.482Z,1.77
2023-12-30T06:18:43.146Z,1.75
2023-12-30T06:21:45.800Z,2.00
2023-12-30T06:24:48.463Z,1.85
2023-12-30T06:27:52.455Z,2.65
2023-12-30T06:30:55.299Z,1.83
2023-12-30T06:33:58.191Z,2.05
2023-12-30T06:37:00.940Z,2.08
2023-12-30T06:40:03.921Z,2.97
2023-12-30T06:43:08.008Z,2.55
2023-12-30T06:46:10.642Z,2.10
2023-12-30T06:49:13.471Z,1.50
2023-12-30T06:52:16.250Z,2.17
2023-12-30T06:55:23.449Z,2.05
2023-12-30T06:58:32.853Z,1.88
2023-12-30T07:01:40.280Z,2.58
2023-12-30T07:04:42.991Z,1.50
2023-12-30T07:07:45.590Z,1.45
2023-12-30T07:10:48.659Z,1.52
2023-12-30T07:13:52.647Z,1.73
2023-12-30T07:16:55.294Z,2.45
2023-12-30T07:20:00.229Z,1.73
2023-12-30T07:23:03.558Z,1.63
2023-12-30T07:26:06.337Z,2.22
2023-12-30T07:29:10.354Z,1.50
2023-12-30T07:32:12.962Z,1.70
2023-12-30T07:35:15.763Z,1.50
2023-12-30T07:38:18.444Z,1.58
2023-12-30T07:41:21.102Z,2.83
2023-12-30T07:44:25.021Z,1.90
2023-12-30T07:47:27.962Z,1.63
2023-12-30T07:50:30.579Z,2.78
2023-12-30T07:53:33.641Z,1.42
2023-12-30T07:56:36.317Z,2.85
2023-12-30T07:59:40.343Z,3.17
2023-12-30T08:02:43.074Z,3.10
2023-12-30T08:05:45.834Z,2.92
2023-12-30T08:08:48.581Z,3.15
2023-12-30T08:11:59.183Z,2.83
2023-12-30T08:15:09.053Z,2.83
2023-12-30T08:18:12.260Z,1.50
2023-12-30T08:21:15.007Z,2.08
2023-12-30T08:24:19.307Z,1.55
2023-12-30T08:27:21.899Z,2.17
2023-12-30T08:30:25.887Z,1.52
2023-12-30T08:33:28.670Z,1.52
2023-12-30T08:36:31.534Z,2.05
2023-12-30T08:39:34.277Z,1.33
2023-12-30T08:42:37.079Z,2.70
2023-12-30T08:45:41.111Z,2.83
2023-12-30T08:48:43.801Z,1.95
2023-12-30T08:51:46.488Z,1.88
2023-12-30T08:54:49.169Z,2.33
2023-12-30T08:57:51.822Z,1.55
2023-12-30T09:00:55.969Z,2.38
2023-12-30T09:03:58.771Z,2.03
2023-12-30T09:07:01.559Z,1.50
2023-12-30T09:10:04.543Z,2.08
2023-12-30T09:13:07.726Z,2.17
2023-12-30T09:16:12.046Z,2.53
2023-12-30T09:19:14.851Z,2.50
2023-12-30T09:22:17.560Z,2.22
2023-12-30T09:25:20.296Z,1.35
2023-12-30T09:28:23.034Z,2.92
2023-12-30T09:31:28.203Z,2.47
2023-12-30T09:34:38.985Z,1.63
2023-12-30T09:37:46.539Z,2.05
2023-12-30T09:40:49.125Z,2.55
2023-12-30T09:43:51.743Z,2.75
2023-12-30T09:46:56.001Z,2.20
2023-12-30T09:49:58.620Z,3.15
2023-12-30T09:53:01.510Z,1.48
2023-12-30T09:56:04.434Z,1.98
2023-12-30T09:59:07.060Z,1.45
2023-12-30T10:02:11.408Z,3.85
2023-12-30T10:05:14.206Z,2.17
2023-12-30T10:08:16.936Z,2.47
2023-12-30T10:11:19.608Z,2.05
2023-12-30T10:14:22.321Z,2.45
2023-12-30T10:17:26.422Z,3.33
2023-12-30T10:20:29.074Z,2.72
2023-12-30T10:23:32.234Z,3.45
2023-12-30T10:26:34.874Z,3.08
2023-12-30T10:29:46.831Z,2.20
2023-12-30T10:32:55.780Z,3.10
2023-12-30T10:35:58.521Z,2.25
2023-12-30T10:39:01.195Z,2.00
2023-12-30T10:42:03.807Z,2.50
2023-12-30T10:45:07.186Z,3.35
2023-12-30T10:48:11.222Z,1.40
2023-12-30T10:51:15.043Z,2.40
2023-12-30T10:54:21.804Z,2.20
2023-12-30T10:57:24.476Z,4.07
2023-12-30T11:00:27.068Z,3.42
2023-12-30T11:03:32.567Z,2.75
2023-12-30T11:06:38.954Z,2.60
2023-12-30T11:09:41.583Z,3.50
2023-12-30T11:12:44.255Z,2.65
2023-12-30T11:15:46.890Z,3.83
2023-12-30T11:18:51.730Z,3.20
2023-12-30T11:21:55.369Z,6.03
2023-12-30T11:24:58.049Z,4.65
2023-12-30T11:28:13.678Z,5.57
2023-12-30T11:31:16.282Z,3.40
2023-12-30T11:34:20.426Z,4.97
2023-12-30T11:37:23.330Z,5.05
2023-12-30T11:40:26.736Z,3.95
2023-12-30T11:43:29.448Z,5.97
2023-12-30T11:46:32.201Z,7.63
2023-12-30T11:49:37.169Z,8.40
2023-12-30T11:52:39.917Z,6.78
2023-12-30T11:55:42.650Z,5.20
2023-12-30T11:58:45.366Z,6.65
2023-12-30T12:01:48.748Z,4.18
2023-12-30T12:04:52.878Z,7.38
2023-12-30T12:07:55.534Z,7.07
2023-12-30T12:10:58.243Z,4.28
2023-12-30T12:14:00.890Z,3.90
2023-12-30T12:17:05.540Z,8.20
2023-12-30T12:20:12.063Z,5.50
2023-12-30T12:23:15.061Z,7.18
2023-12-30T12:26:18.237Z,8.75
2023-12-30T12:29:22.091Z,11.48
2023-12-30T12:32:26.633Z,6.07
2023-12-30T12:35:31.866Z,4.18
2023-12-30T12:38:34.528Z,5.40
2023-12-30T12:41:37.547Z,6.28
2023-12-30T12:44:40.143Z,4.50
2023-12-30T12:47:42.936Z,4.88
2023-12-30T12:50:46.956Z,5.13
2023-12-30T12:53:49.976Z,3.70
2023-12-30T12:56:52.624Z,3.83
2023-12-30T12:59:55.222Z,5.25
2023-12-30T13:02:59.650Z,4.68
2023-12-30T13:06:13.246Z,4.38
2023-12-30T13:09:35.531Z,5.47
2023-12-30T13:12:38.630Z,5.40
2023-12-30T13:15:41.440Z,5.65
2023-12-30T13:18:44.177Z,4.47
2023-12-30T13:21:49.505Z,5.80
2023-12-30T13:24:52.679Z,3.50
2023-12-30T13:27:55.397Z,6.60
2023-12-30T13:30:58.709Z,5.75
2023-12-30T13:34:01.615Z,3.13
2023-12-30T13:37:07.241Z,5.25
2023-12-30T13:40:14.816Z,2.90
2023-12-30T13:43:17.614Z,2.80
2023-12-30T13:46:35.153Z,2.25
2023-12-30T13:49:59.592Z,3.05
2023-12-30T13:53:04.524Z,5.03
2023-12-30T13:56:08.036Z,3.10
2023-12-30T13:59:13.389Z,3.40
2023-12-30T14:02:19.015Z,3.00
2023-12-30T14:05:29.562Z,3.38
2023-12-30T14:08:37.908Z,2.85
2023-12-30T14:11:47.740Z,3.60
2023-12-30T14:14:54.606Z,2.47
2023-12-30T14:17:57.362Z,3.22
2023-12-30T14:21:00.050Z,2.67
2023-12-30T14:24:04.155Z,3.40
2023-12-30T14:27:06.821Z,2.17
2023-12-30T14:30:12.979Z,2.65
2023-12-30T14:33:15.910Z,4.20
2023-12-30T14:36:18.609Z,3.13
2023-12-30T14:39:22.931Z,2.72
2023-12-30T14:42:25.815Z,2.72
2023-12-30T14:45:28.421Z,2.40
2023-12-30T14:48:31.041Z,2.50
2023-12-30T14:51:33.655Z,2.08
2023-12-30T14:54:39.002Z,1.67
2023-12-30T14:57:42.178Z,1.88
2023-12-30T15:00:45.076Z,2.35
2023-12-30T15:03:47.790Z,1.25
2023-12-30T15:06:50.917Z,0.98
2023-12-30T15:09:54.848Z,1.80
2023-12-30T15:12:57.469Z,1.33
2023-12-30T15:16:00.203Z,2.08
2023-12-30T15:19:03.028Z,2.08
2023-12-30T15:22:06.325Z,1.92
2023-12-30T15:25:12.397Z,1.38
2023-12-30T15:28:15.056Z,1.55
2023-12-30T15:31:17.906Z,1.40
2023-12-30T15:34:20.685Z,1.13
2023-12-30T15:37:24.147Z,1.30
2023-12-30T15:40:28.318Z,1.17
2023-12-30T15:43:32.803Z,2.03
2023-12-30T15:46:36.795Z,1.00
2023-12-30T15:49:41.582Z,1.77
2023-12-30T15:52:44.559Z,1.75
2023-12-30T15:55:49.403Z,1.75
2023-12-30T15:58:52.565Z,1.80
2023-12-30T16:01:55.325Z,0.93
2023-12-30T16:04:57.969Z,1.10
2023-12-30T16:08:00.648Z,1.60
2023-12-30T16:11:04.887Z,1.58
2023-12-30T16:14:10.909Z,1.42
2023-12-30T16:17:14.205Z,0.70
2023-12-30T16:20:16.854Z,1.67
2023-12-30T16:23:19.501Z,1.17
2023-12-30T16:26:23.857Z,1.05
2023-12-30T16:29:26.516Z,0.88
2023-12-30T16:32:29.379Z,0.60
2023-12-30T16:35:32.110Z,1.70
2023-12-30T16:38:34.698Z,1.48
2023-12-30T16:41:38.686Z,1.33
2023-12-30T16:44:41.861Z,1.10
2023-12-30T16:47:44.634Z,1.10
2023-12-30T16:50:47.792Z,0.98
2023-12-30T16:53:50.403Z,2.05
2023-12-30T16:56:54.332Z,1.73
2023-12-30T16:59:56.908Z,0.98
2023-12-30T17:02:59.782Z,1.33
2023-12-30T17:06:03.257Z,1.23
2023-12-30T17:09:06.460Z,0.55
2023-12-30T17:12:10.718Z,1.48
2023-12-30T17:15:15.228Z,1.23
2023-12-30T17:18:17.837Z,1.00
2023-12-30T17:21:20.440Z,0.98
2023-12-30T17:24:23.102Z,1.02
2023-12-30T17:27:27.108Z,0.80
2023-12-30T17:30:30.016Z,1.05
2023-12-30T17:33:32.689Z,0.88
2023-12-30T17:36:35.299Z,1.08
2023-12-30T17:39:37.898Z,1.13
2023-12-30T17:42:41.809Z,0.95
2023-12-30T17:45:44.570Z,1.02
2023-12-30T17:48:47.236Z,1.13
2023-12-30T17:51:49.812Z,1.10
2023-12-30T17:54:52.406Z,0.88
2023-12-30T17:57:56.327Z,1.45
2023-12-30T18:00:58.960Z,0.93
2023-12-30T18:04:02.231Z,0.90
2023-12-30T18:07:05.296Z,1.13
2023-12-30T18:10:08.828Z,1.10
2023-12-30T18:13:13.061Z,0.88
2023-12-30T18:16:15.788Z,1.10
2023-12-30T18:19:18.717Z,1.08
2023-12-30T18:22:21.370Z,1.17
2023-12-30T18:25:24.164Z,1.25
2023-12-30T18:28:28.221Z,1.30
2023-12-30T18:31:32.343Z,1.10
2023-12-30T18:34:36.321Z,0.70
2023-12-30T18:37:39.156Z,1.77
2023-12-30T18:40:43.465Z,1.63
2023-12-30T18:43:47.603Z,2.05
2023-12-30T18:46:50.763Z,1.83
2023-12-30T18:49:53.466Z,2.22
2023-12-30T18:52:57.652Z,1.90
2023-12-30T18:56:04.246Z,2.15
2023-12-30T18:59:08.259Z,2.20
2023-12-30T19:02:10.989Z,2.05
2023-12-30T19:05:14.099Z,2.08
2023-12-30T19:08:16.782Z,2.05
2023-12-30T19:11:20.015Z,1.63
2023-12-30T19:14:24.703Z,2.00
2023-12-30T19:17:28.178Z,1.13
2023-12-30T19:20:30.974Z,2.38
2023-12-30T19:23:35.974Z,2.55
2023-12-30T19:26:38.620Z,1.83
2023-12-30T19:29:42.601Z,2.38
2023-12-30T19:32:45.253Z,1.77
2023-12-30T19:35:48.370Z,2.35
2023-12-30T19:38:51.428Z,2.72
2023-12-30T19:41:54.016Z,1.85
2023-12-30T19:44:58.238Z,3.10
2023-12-30T19:48:01.356Z,2.25
2023-12-30T19:51:05.481Z,1.77
2023-12-30T19:54:08.197Z,1.60
2023-12-30T19:57:11.368Z,2.35
2023-12-30T20:00:16.058Z,3.00
2023-12-30T20:03:19.233Z,2.28
2023-12-30T20:06:21.886Z,1.98
2023-12-30T20:09:24.575Z,1.77
2023-12-30T20:12:29.069Z,1.85
2023-12-30T20:15:33.000Z,1.65
2023-12-30T20:18:36.225Z,2.40
2023-12-30T20:21:39.515Z,2.30
2023-12-30T20:24:42.102Z,2.30
2023-12-30T20:27:44.727Z,1.58
2023-12-30T20:30:48.700Z,1.95
2023-12-30T20:33:51.473Z,2.20
2023-12-30T20:36:54.136Z,2.35
2023-12-30T20:39:56.727Z,3.13
2023-12-30T20:43:00.174Z,2.22
2023-12-30T20:46:08.858Z,1.80
2023-12-30T20:49:11.594Z,2.42
2023-12-30T20:52:14.686Z,2.20
2023-12-30T20:55:17.443Z,1.58
2023-12-30T20:58:20.235Z,1.65
2023-12-30T21:01:24.309Z,1.80
2023-12-30T21:04:27.084Z,2.28
2023-12-30T21:07:29.733Z,2.10
2023-12-30T21:10:32.406Z,2.45
2023-12-30T21:13:35.042Z,2.38
2023-12-30T21:16:39.096Z,2.28
2023-12-30T21:19:41.949Z,2.38
2023-12-30T21:22:44.619Z,2.75
2023-12-30T21:25:50.186Z,2.47
2023-12-30T21:28:52.933Z,2.17
2023-12-30T21:31:56.980Z,1.88
2023-12-30T21:34:59.683Z,1.90
2023-12-30T21:38:02.714Z,2.15
2023-12-30T21:41:06.088Z,2.22
2023-12-30T21:44:08.686Z,2.20
2023-12-30T21:47:12.681Z,2.15
2023-12-30T21:50:15.471Z,1.90
2023-12-30T21:53:18.155Z,2.95
2023-12-30T21:56:20.773Z,1.65
2023-12-30T21:59:23.401Z,1.88
2023-12-30T22:02:27.550Z,2.50
2023-12-30T22:05:30.478Z,2.28
2023-12-30T22:08:33.102Z,1.98
2023-12-30T22:11:35.735Z,1.55
2023-12-30T22:14:39.451Z,1.80
2023-12-30T22:17:43.431Z,1.55
2023-12-30T22:20:46.045Z,1.83
2023-12-30T22:23:49.082Z,1.88
2023-12-30T22:26:51.731Z,1.80
2023-12-30T22:29:54.323Z,1.90
2023-12-30T22:32:58.406Z,2.00
2023-12-30T22:36:01.551Z,2.38
2023-12-30T22:39:04.150Z,2.10
2023-12-30T22:42:06.978Z,1.80
2023-12-30T22:45:10.270Z,2.25
2023-12-30T22:48:14.835Z,2.15
2023-12-30T22:51:17.506Z,1.95
2023-12-30T22:54:20.103Z,1.50
2023-12-30T22:57:22.727Z,1.77
2023-12-30T23:00:28.195Z,2.63
2023-12-30T23:03:32.138Z,1.42
2023-12-30T23:06:34.795Z,1.50
2023-12-30T23:09:37.919Z,1.25
2023-12-30T23:12:40.549Z,2.00
2023-12-30T23:15:43.222Z,1.42
2023-12-30T23:18:47.311Z,2.28
2023-12-30T23:21:50.101Z,1.70
2023-12-30T23:24:52.751Z,2.03
2023-12-30T23:27:55.349Z,1.90
2023-12-30T23:30:58.003Z,0.85
2023-12-30T23:34:02.652Z,1.40
2023-12-30T23:37:05.828Z,1.30
2023-12-30T23:40:10.162Z,1.20
2023-12-30T23:43:12.929Z,1.73
2023-12-30T23:46:15.570Z,1.33
2023-12-30T23:49:19.663Z,1.23
2023-12-30T23:52:22.383Z,1.48
2023-12-30T23:55:25.057Z,1.33
2023-12-30T23:58:27.757Z,1.27
